sensor_id;sensor_type;location;lat;lon;timestamp;P1;durP1;ratioP1;P2;durP2;ratioP2
4903;SDS011;2467;48.142;11.616;2022-12-20T00:00:24;10.23;;;8.82;;
4903;SDS011;2467;48.142;11.616;2022-12-20T00:00:56;12.50;;;9.52;;
4903;SDS011;2467;48.142;11.616;2022-12-20T00:01:29;9.52;;;8.63;;
4903;SDS011;2467;48.142;11.616;2022-12-20T00:02:03;11.65;;;9.93;;
4903;SDS011;2467;48.142;11.616;2022-12-20T00:02:35;13.27;;;11.13;;
4903;SDS011;2467;48.142;11.616;2022-12-20T00:03:07;14.30;;;11.05;;
4903;SDS011;2467;48.142;11.616;2022-12-20T00:03:40;67.75;;;46.55;;
4903;SDS011;2467;48.142;11.616;2022-12-20T00:04:14;67.93;;;47.17;;
4903;SDS011;2467;48.142;11.616;2022-12-20T00:04:47;46.80;;;34.38;;
4903;SDS011;2467;48.142;11.616;2022-12-20T00:05:18;27.20;;;21.20;;
4903;SDS011;2467;48.142;11.616;2022-12-20T00:05:50;24.40;;;17.30;;
4903;SDS011;2467;48.142;11.616;2022-12-20T00:06:23;23.00;;;16.42;;
4903;SDS011;2467;48.142;11.616;2022-12-20T00:06:56;25.70;;;20.25;;
4903;SDS011;2467;48.142;11.616;2022-12-20T00:07:29;26.23;;;18.13;;
4903;SDS011;2467;48.142;11.616;2022-12-20T00:08:00;28.38;;;20.65;;
4903;SDS011;2467;48.142;11.616;2022-12-20T00:08:32;42.05;;;31.80;;
4903;SDS011;2467;48.142;11.616;2022-12-20T00:09:07;39.22;;;27.60;;
4903;SDS011;2467;48.142;11.616;2022-12-20T00:09:39;26.88;;;22.00;;
4903;SDS011;2467;48.142;11.616;2022-12-20T00:10:11;17.60;;;14.75;;
4903;SDS011;2467;48.142;11.616;2022-12-20T00:10:45;15.55;;;13.73;;
4903;SDS011;2467;48.142;11.616;2022-12-20T00:11:17;15.65;;;11.43;;
4903;SDS011;2467;48.142;11.616;2022-12-20T00:11:49;10.35;;;9.32;;
4903;SDS011;2467;48.142;11.616;2022-12-20T00:12:22;15.43;;;9.45;;
4903;SDS011;2467;48.142;11.616;2022-12-20T00:12:54;11.85;;;9.15;;
4903;SDS011;2467;48.142;11.616;2022-12-20T00:13:26;10.43;;;9.18;;
4903;SDS011;2467;48.142;11.616;2022-12-20T00:13:59;9.45;;;8.45;;
4903;SDS011;2467;48.142;11.616;2022-12-20T00:14:31;9.27;;;8.48;;
4903;SDS011;2467;48.142;11.616;2022-12-20T00:15:03;9.65;;;8.63;;
4903;SDS011;2467;48.142;11.616;2022-12-20T00:15:36;11.68;;;9.38;;
4903;SDS011;2467;48.142;11.616;2022-12-20T00:16:09;8.90;;;8.00;;
4903;SDS011;2467;48.142;11.616;2022-12-20T00:16:43;10.45;;;9.45;;
4903;SDS011;2467;48.142;11.616;2022-12-20T00:17:16;10.75;;;8.55;;
4903;SDS011;2467;48.142;11.616;2022-12-20T00:17:48;8.88;;;7.97;;
4903;SDS011;2467;48.142;11.616;2022-12-20T00:18:19;9.25;;;8.25;;
4903;SDS011;2467;48.142;11.616;2022-12-20T00:18:53;8.80;;;7.90;;
4903;SDS011;2467;48.142;11.616;2022-12-20T00:19:26;10.57;;;8.15;;
4903;SDS011;2467;48.142;11.616;2022-12-20T00:19:58;11.73;;;8.18;;
4903;SDS011;2467;48.142;11.616;2022-12-20T00:20:31;8.98;;;7.97;;
4903;SDS011;2467;48.142;11.616;2022-12-20T00:21:04;9.85;;;8.80;;
4903;SDS011;2467;48.142;11.616;2022-12-20T00:21:37;9.48;;;8.48;;
4903;SDS011;2467;48.142;11.616;2022-12-20T00:22:09;9.90;;;8.35;;
4903;SDS011;2467;48.142;11.616;2022-12-20T00:22:42;11.50;;;8.13;;
4903;SDS011;2467;48.142;11.616;2022-12-20T00:23:13;8.57;;;7.30;;
4903;SDS011;2467;48.142;11.616;2022-12-20T00:23:46;11.98;;;9.05;;
4903;SDS011;2467;48.142;11.616;2022-12-20T00:24:18;9.55;;;8.65;;
4903;SDS011;2467;48.142;11.616;2022-12-20T00:24:56;9.10;;;8.18;;
4903;SDS011;2467;48.142;11.616;2022-12-20T00:25:29;8.95;;;8.15;;
4903;SDS011;2467;48.142;11.616;2022-12-20T00:26:03;8.57;;;7.72;;
4903;SDS011;2467;48.142;11.616;2022-12-20T00:26:36;8.40;;;7.60;;
4903;SDS011;2467;48.142;11.616;2022-12-20T00:27:09;7.97;;;7.18;;
4903;SDS011;2467;48.142;11.616;2022-12-20T00:27:41;7.85;;;6.97;;
4903;SDS011;2467;48.142;11.616;2022-12-20T00:28:13;9.55;;;8.55;;
4903;SDS011;2467;48.142;11.616;2022-12-20T00:28:46;9.57;;;8.68;;
4903;SDS011;2467;48.142;11.616;2022-12-20T00:29:18;10.70;;;8.23;;
4903;SDS011;2467;48.142;11.616;2022-12-20T00:29:50;9.65;;;8.68;;
4903;SDS011;2467;48.142;11.616;2022-12-20T00:30:22;8.75;;;7.82;;
4903;SDS011;2467;48.142;11.616;2022-12-20T00:30:54;10.70;;;7.78;;
4903;SDS011;2467;48.142;11.616;2022-12-20T00:31:27;9.63;;;8.63;;
4903;SDS011;2467;48.142;11.616;2022-12-20T00:32:01;7.90;;;6.75;;
4903;SDS011;2467;48.142;11.616;2022-12-20T00:32:32;12.05;;;9.18;;
4903;SDS011;2467;48.142;11.616;2022-12-20T00:33:04;8.27;;;7.38;;
4903;SDS011;2467;48.142;11.616;2022-12-20T00:33:37;8.60;;;7.80;;
4903;SDS011;2467;48.142;11.616;2022-12-20T00:34:10;7.93;;;7.13;;
4903;SDS011;2467;48.142;11.616;2022-12-20T00:34:42;7.95;;;7.22;;
4903;SDS011;2467;48.142;11.616;2022-12-20T00:35:14;11.32;;;7.78;;
4903;SDS011;2467;48.142;11.616;2022-12-20T00:35:46;8.07;;;7.28;;
4903;SDS011;2467;48.142;11.616;2022-12-20T00:36:18;7.47;;;6.78;;
4903;SDS011;2467;48.142;11.616;2022-12-20T00:36:53;8.15;;;7.35;;
4903;SDS011;2467;48.142;11.616;2022-12-20T00:37:24;7.43;;;6.72;;
4903;SDS011;2467;48.142;11.616;2022-12-20T00:37:56;10.02;;;7.43;;
4903;SDS011;2467;48.142;11.616;2022-12-20T00:38:29;9.02;;;7.57;;
4903;SDS011;2467;48.142;11.616;2022-12-20T00:39:01;8.05;;;7.03;;
4903;SDS011;2467;48.142;11.616;2022-12-20T00:39:33;8.20;;;7.30;;
4903;SDS011;2467;48.142;11.616;2022-12-20T00:40:07;9.30;;;8.40;;
4903;SDS011;2467;48.142;11.616;2022-12-20T00:40:39;7.13;;;6.30;;
4903;SDS011;2467;48.142;11.616;2022-12-20T00:41:13;8.10;;;6.20;;
4903;SDS011;2467;48.142;11.616;2022-12-20T00:41:47;9.80;;;7.65;;
4903;SDS011;2467;48.142;11.616;2022-12-20T00:42:19;8.40;;;7.55;;
4903;SDS011;2467;48.142;11.616;2022-12-20T00:42:51;7.47;;;6.55;;
4903;SDS011;2467;48.142;11.616;2022-12-20T00:43:24;9.10;;;7.03;;
4903;SDS011;2467;48.142;11.616;2022-12-20T00:43:56;7.65;;;6.85;;
4903;SDS011;2467;48.142;11.616;2022-12-20T00:44:28;11.35;;;7.13;;
4903;SDS011;2467;48.142;11.616;2022-12-20T00:45:01;7.65;;;6.85;;
4903;SDS011;2467;48.142;11.616;2022-12-20T00:45:33;6.80;;;6.20;;
4903;SDS011;2467;48.142;11.616;2022-12-20T00:46:05;8.15;;;6.93;;
4903;SDS011;2467;48.142;11.616;2022-12-20T00:46:40;8.90;;;8.00;;
4903;SDS011;2467;48.142;11.616;2022-12-20T00:47:12;9.45;;;7.88;;
4903;SDS011;2467;48.142;11.616;2022-12-20T00:47:45;7.70;;;6.30;;
4903;SDS011;2467;48.142;11.616;2022-12-20T00:48:16;6.68;;;6.03;;
4903;SDS011;2467;48.142;11.616;2022-12-20T00:48:49;9.88;;;7.28;;
4903;SDS011;2467;48.142;11.616;2022-12-20T00:49:22;7.25;;;6.55;;
4903;SDS011;2467;48.142;11.616;2022-12-20T00:49:54;8.07;;;7.25;;
4903;SDS011;2467;48.142;11.616;2022-12-20T00:50:25;8.48;;;7.30;;
4903;SDS011;2467;48.142;11.616;2022-12-20T00:50:59;7.88;;;7.07;;
4903;SDS011;2467;48.142;11.616;2022-12-20T00:51:31;7.97;;;6.80;;
4903;SDS011;2467;48.142;11.616;2022-12-20T00:52:03;8.23;;;7.18;;
4903;SDS011;2467;48.142;11.616;2022-12-20T00:52:36;8.93;;;6.43;;
4903;SDS011;2467;48.142;11.616;2022-12-20T00:53:08;5.50;;;5.00;;
4903;SDS011;2467;48.142;11.616;2022-12-20T00:53:40;6.55;;;5.95;;
4903;SDS011;2467;48.142;11.616;2022-12-20T00:54:14;6.60;;;5.68;;
4903;SDS011;2467;48.142;11.616;2022-12-20T00:54:46;6.38;;;5.40;;
4903;SDS011;2467;48.142;11.616;2022-12-20T00:55:18;6.07;;;5.47;;
4903;SDS011;2467;48.142;11.616;2022-12-20T00:55:51;6.65;;;5.95;;
4903;SDS011;2467;48.142;11.616;2022-12-20T00:56:24;7.65;;;6.25;;
4903;SDS011;2467;48.142;11.616;2022-12-20T00:56:57;5.80;;;5.30;;
4903;SDS011;2467;48.142;11.616;2022-12-20T00:57:29;6.07;;;5.47;;
4903;SDS011;2467;48.142;11.616;2022-12-20T00:58:01;5.75;;;5.25;;
4903;SDS011;2467;48.142;11.616;2022-12-20T00:58:34;6.07;;;5.47;;
4903;SDS011;2467;48.142;11.616;2022-12-20T00:59:07;5.88;;;5.30;;
4903;SDS011;2467;48.142;11.616;2022-12-20T00:59:39;7.30;;;5.65;;
4903;SDS011;2467;48.142;11.616;2022-12-20T01:00:12;6.45;;;5.85;;
4903;SDS011;2467;48.142;11.616;2022-12-20T01:00:45;9.15;;;5.95;;
4903;SDS011;2467;48.142;11.616;2022-12-20T01:01:27;6.68;;;5.32;;
4903;SDS011;2467;48.142;11.616;2022-12-20T01:02:02;6.40;;;5.20;;
4903;SDS011;2467;48.142;11.616;2022-12-20T01:02:34;6.70;;;4.25;;
4903;SDS011;2467;48.142;11.616;2022-12-20T01:03:06;5.55;;;5.00;;
4903;SDS011;2467;48.142;11.616;2022-12-20T01:03:39;5.47;;;4.57;;
4903;SDS011;2467;48.142;11.616;2022-12-20T01:04:11;5.70;;;5.20;;
4903;SDS011;2467;48.142;11.616;2022-12-20T01:04:44;7.63;;;4.75;;
4903;SDS011;2467;48.142;11.616;2022-12-20T01:05:18;4.80;;;4.25;;
4903;SDS011;2467;48.142;11.616;2022-12-20T01:05:50;5.25;;;4.30;;
4903;SDS011;2467;48.142;11.616;2022-12-20T01:06:24;4.72;;;4.15;;
4903;SDS011;2467;48.142;11.616;2022-12-20T01:06:56;5.78;;;4.80;;
4903;SDS011;2467;48.142;11.616;2022-12-20T01:07:28;4.88;;;4.05;;
4903;SDS011;2467;48.142;11.616;2022-12-20T01:08:01;6.25;;;4.80;;
4903;SDS011;2467;48.142;11.616;2022-12-20T01:08:33;4.40;;;4.00;;
4903;SDS011;2467;48.142;11.616;2022-12-20T01:09:05;4.43;;;4.03;;
4903;SDS011;2467;48.142;11.616;2022-12-20T01:09:38;6.32;;;3.92;;
4903;SDS011;2467;48.142;11.616;2022-12-20T01:10:10;6.10;;;4.35;;
4903;SDS011;2467;48.142;11.616;2022-12-20T01:10:42;4.68;;;4.28;;
4903;SDS011;2467;48.142;11.616;2022-12-20T01:11:15;5.07;;;4.60;;
4903;SDS011;2467;48.142;11.616;2022-12-20T01:11:51;4.13;;;3.83;;
4903;SDS011;2467;48.142;11.616;2022-12-20T01:12:22;5.65;;;4.65;;
4903;SDS011;2467;48.142;11.616;2022-12-20T01:12:54;5.20;;;4.45;;
4903;SDS011;2467;48.142;11.616;2022-12-20T01:13:27;4.90;;;4.50;;
4903;SDS011;2467;48.142;11.616;2022-12-20T01:14:01;4.75;;;3.65;;
4903;SDS011;2467;48.142;11.616;2022-12-20T01:14:35;3.47;;;3.17;;
4903;SDS011;2467;48.142;11.616;2022-12-20T01:15:08;5.30;;;4.80;;
4903;SDS011;2467;48.142;11.616;2022-12-20T01:15:41;4.22;;;3.83;;
4903;SDS011;2467;48.142;11.616;2022-12-20T01:16:15;5.72;;;4.30;;
4903;SDS011;2467;48.142;11.616;2022-12-20T01:16:49;4.03;;;3.45;;
4903;SDS011;2467;48.142;11.616;2022-12-20T01:17:21;4.38;;;3.97;;
4903;SDS011;2467;48.142;11.616;2022-12-20T01:17:54;4.35;;;3.95;;
4903;SDS011;2467;48.142;11.616;2022-12-20T01:18:27;4.20;;;3.80;;
4903;SDS011;2467;48.142;11.616;2022-12-20T01:18:59;4.43;;;4.03;;
4903;SDS011;2467;48.142;11.616;2022-12-20T01:19:32;4.72;;;4.28;;
4903;SDS011;2467;48.142;11.616;2022-12-20T01:20:05;4.57;;;4.18;;
4903;SDS011;2467;48.142;11.616;2022-12-20T01:20:38;4.88;;;4.10;;
4903;SDS011;2467;48.142;11.616;2022-12-20T01:21:12;4.05;;;3.65;;
4903;SDS011;2467;48.142;11.616;2022-12-20T01:21:45;5.30;;;4.63;;
4903;SDS011;2467;48.142;11.616;2022-12-20T01:22:17;4.40;;;4.00;;
4903;SDS011;2467;48.142;11.616;2022-12-20T01:22:50;4.20;;;3.80;;
4903;SDS011;2467;48.142;11.616;2022-12-20T01:23:22;5.22;;;4.10;;
4903;SDS011;2467;48.142;11.616;2022-12-20T01:23:54;5.30;;;4.03;;
4903;SDS011;2467;48.142;11.616;2022-12-20T01:24:27;5.45;;;4.13;;
4903;SDS011;2467;48.142;11.616;2022-12-20T01:24:59;3.92;;;3.53;;
4903;SDS011;2467;48.142;11.616;2022-12-20T01:25:31;4.68;;;4.28;;
4903;SDS011;2467;48.142;11.616;2022-12-20T01:26:04;4.65;;;4.20;;
4903;SDS011;2467;48.142;11.616;2022-12-20T01:26:39;4.38;;;3.67;;
4903;SDS011;2467;48.142;11.616;2022-12-20T01:27:12;5.07;;;3.10;;
4903;SDS011;2467;48.142;11.616;2022-12-20T01:27:45;3.70;;;3.30;;
4903;SDS011;2467;48.142;11.616;2022-12-20T01:28:17;4.10;;;3.70;;
4903;SDS011;2467;48.142;11.616;2022-12-20T01:28:51;4.15;;;3.75;;
4903;SDS011;2467;48.142;11.616;2022-12-20T01:29:25;3.80;;;3.40;;
4903;SDS011;2467;48.142;11.616;2022-12-20T01:29:57;4.30;;;3.60;;
4903;SDS011;2467;48.142;11.616;2022-12-20T01:30:29;4.43;;;3.78;;
4903;SDS011;2467;48.142;11.616;2022-12-20T01:31:00;5.70;;;4.03;;
4903;SDS011;2467;48.142;11.616;2022-12-20T01:31:33;4.35;;;3.95;;
4903;SDS011;2467;48.142;11.616;2022-12-20T01:32:06;5.20;;;3.75;;
4903;SDS011;2467;48.142;11.616;2022-12-20T01:32:39;5.13;;;3.72;;
4903;SDS011;2467;48.142;11.616;2022-12-20T01:33:11;4.03;;;3.67;;
4903;SDS011;2467;48.142;11.616;2022-12-20T01:33:43;4.50;;;3.85;;
4903;SDS011;2467;48.142;11.616;2022-12-20T01:34:16;3.63;;;3.33;;
4903;SDS011;2467;48.142;11.616;2022-12-20T01:34:48;3.88;;;3.28;;
4903;SDS011;2467;48.142;11.616;2022-12-20T01:35:20;3.40;;;3.10;;
4903;SDS011;2467;48.142;11.616;2022-12-20T01:35:56;3.85;;;3.40;;
4903;SDS011;2467;48.142;11.616;2022-12-20T01:36:30;4.22;;;3.85;;
4903;SDS011;2467;48.142;11.616;2022-12-20T01:37:03;3.88;;;3.40;;
4903;SDS011;2467;48.142;11.616;2022-12-20T01:37:36;4.00;;;3.70;;
4903;SDS011;2467;48.142;11.616;2022-12-20T01:38:07;3.45;;;3.15;;
4903;SDS011;2467;48.142;11.616;2022-12-20T01:38:39;3.58;;;3.28;;
4903;SDS011;2467;48.142;11.616;2022-12-20T01:39:12;4.25;;;3.85;;
4903;SDS011;2467;48.142;11.616;2022-12-20T01:39:46;4.00;;;3.58;;
4903;SDS011;2467;48.142;11.616;2022-12-20T01:40:18;4.22;;;3.80;;
4903;SDS011;2467;48.142;11.616;2022-12-20T01:40:50;3.92;;;3.60;;
4903;SDS011;2467;48.142;11.616;2022-12-20T01:41:22;3.83;;;3.42;;
4903;SDS011;2467;48.142;11.616;2022-12-20T01:41:55;4.15;;;3.75;;
4903;SDS011;2467;48.142;11.616;2022-12-20T01:42:29;3.55;;;3.25;;
4903;SDS011;2467;48.142;11.616;2022-12-20T01:43:00;3.45;;;3.15;;
4903;SDS011;2467;48.142;11.616;2022-12-20T01:43:47;3.55;;;3.25;;
4903;SDS011;2467;48.142;11.616;2022-12-20T01:45:27;3.72;;;2.95;;
4903;SDS011;2467;48.142;11.616;2022-12-20T01:46:00;2.58;;;2.38;;
4903;SDS011;2467;48.142;11.616;2022-12-20T01:46:32;4.75;;;4.20;;
4903;SDS011;2467;48.142;11.616;2022-12-20T01:47:07;4.60;;;3.85;;
4903;SDS011;2467;48.142;11.616;2022-12-20T01:47:39;3.63;;;3.33;;
4903;SDS011;2467;48.142;11.616;2022-12-20T01:48:11;4.90;;;4.50;;
4903;SDS011;2467;48.142;11.616;2022-12-20T01:48:47;3.90;;;3.33;;
4903;SDS011;2467;48.142;11.616;2022-12-20T01:49:23;3.58;;;3.28;;
4903;SDS011;2467;48.142;11.616;2022-12-20T01:49:59;3.60;;;3.30;;
4903;SDS011;2467;48.142;11.616;2022-12-20T01:50:34;2.97;;;2.78;;
4903;SDS011;2467;48.142;11.616;2022-12-20T01:51:06;3.55;;;3.25;;
4903;SDS011;2467;48.142;11.616;2022-12-20T01:51:39;3.55;;;3.25;;
4903;SDS011;2467;48.142;11.616;2022-12-20T01:52:17;3.42;;;3.08;;
4903;SDS011;2467;48.142;11.616;2022-12-20T01:52:53;3.80;;;3.50;;
4903;SDS011;2467;48.142;11.616;2022-12-20T01:53:25;3.67;;;3.38;;
4903;SDS011;2467;48.142;11.616;2022-12-20T01:53:59;3.00;;;2.72;;
4903;SDS011;2467;48.142;11.616;2022-12-20T01:54:35;3.58;;;3.13;;
4903;SDS011;2467;48.142;11.616;2022-12-20T01:55:11;3.60;;;3.20;;
4903;SDS011;2467;48.142;11.616;2022-12-20T01:55:48;3.03;;;2.83;;
4903;SDS011;2467;48.142;11.616;2022-12-20T01:56:20;3.15;;;2.95;;
4903;SDS011;2467;48.142;11.616;2022-12-20T01:56:53;3.75;;;3.30;;
4903;SDS011;2467;48.142;11.616;2022-12-20T01:57:33;3.42;;;2.95;;
4903;SDS011;2467;48.142;11.616;2022-12-20T01:58:12;3.63;;;3.20;;
4903;SDS011;2467;48.142;11.616;2022-12-20T01:58:46;2.90;;;2.70;;
4903;SDS011;2467;48.142;11.616;2022-12-20T01:59:21;2.40;;;2.20;;
4903;SDS011;2467;48.142;11.616;2022-12-20T01:59:55;4.25;;;3.15;;
4903;SDS011;2467;48.142;11.616;2022-12-20T02:00:28;3.03;;;2.83;;
4903;SDS011;2467;48.142;11.616;2022-12-20T02:01:00;3.70;;;2.90;;
4903;SDS011;2467;48.142;11.616;2022-12-20T02:01:33;3.88;;;3.45;;
4903;SDS011;2467;48.142;11.616;2022-12-20T02:02:06;2.75;;;2.55;;
4903;SDS011;2467;48.142;11.616;2022-12-20T02:02:41;4.75;;;3.08;;
4903;SDS011;2467;48.142;11.616;2022-12-20T02:03:16;4.20;;;3.30;;
4903;SDS011;2467;48.142;11.616;2022-12-20T02:03:48;2.80;;;2.60;;
4903;SDS011;2467;48.142;11.616;2022-12-20T02:04:21;2.78;;;2.53;;
4903;SDS011;2467;48.142;11.616;2022-12-20T02:04:54;4.10;;;3.10;;
4903;SDS011;2467;48.142;11.616;2022-12-20T02:05:26;3.53;;;2.60;;
4903;SDS011;2467;48.142;11.616;2022-12-20T02:06:05;3.67;;;2.90;;
4903;SDS011;2467;48.142;11.616;2022-12-20T02:06:45;4.00;;;3.00;;
4903;SDS011;2467;48.142;11.616;2022-12-20T02:07:18;3.40;;;3.10;;
4903;SDS011;2467;48.142;11.616;2022-12-20T02:07:54;2.90;;;2.60;;
4903;SDS011;2467;48.142;11.616;2022-12-20T02:08:28;3.63;;;3.30;;
4903;SDS011;2467;48.142;11.616;2022-12-20T02:09:00;3.65;;;3.08;;
4903;SDS011;2467;48.142;11.616;2022-12-20T02:09:35;2.60;;;2.40;;
4903;SDS011;2467;48.142;11.616;2022-12-20T02:10:09;3.03;;;2.72;;
4903;SDS011;2467;48.142;11.616;2022-12-20T02:10:46;3.50;;;3.17;;
4903;SDS011;2467;48.142;11.616;2022-12-20T02:11:39;3.45;;;3.00;;
4903;SDS011;2467;48.142;11.616;2022-12-20T02:12:20;2.97;;;2.72;;
4903;SDS011;2467;48.142;11.616;2022-12-20T02:12:56;3.30;;;3.00;;
4903;SDS011;2467;48.142;11.616;2022-12-20T02:13:36;4.43;;;2.75;;
4903;SDS011;2467;48.142;11.616;2022-12-20T02:14:18;3.45;;;2.80;;
4903;SDS011;2467;48.142;11.616;2022-12-20T02:15:04;2.42;;;2.22;;
4903;SDS011;2467;48.142;11.616;2022-12-20T02:15:50;3.13;;;2.78;;
4903;SDS011;2467;48.142;11.616;2022-12-20T02:16:27;3.15;;;2.85;;
4903;SDS011;2467;48.142;11.616;2022-12-20T02:17:02;2.60;;;2.28;;
4903;SDS011;2467;48.142;11.616;2022-12-20T02:17:44;2.55;;;2.35;;
4903;SDS011;2467;48.142;11.616;2022-12-20T02:18:24;5.22;;;2.92;;
4903;SDS011;2467;48.142;11.616;2022-12-20T02:19:04;2.85;;;2.65;;
4903;SDS011;2467;48.142;11.616;2022-12-20T02:20:00;3.55;;;2.97;;
4903;SDS011;2467;48.142;11.616;2022-12-20T02:21:07;2.50;;;2.30;;
4903;SDS011;2467;48.142;11.616;2022-12-20T02:21:45;3.08;;;2.42;;
4903;SDS011;2467;48.142;11.616;2022-12-20T02:22:25;2.50;;;2.30;;
4903;SDS011;2467;48.142;11.616;2022-12-20T02:23:12;2.97;;;2.78;;
4903;SDS011;2467;48.142;11.616;2022-12-20T02:25:12;2.60;;;2.40;;
4903;SDS011;2467;48.142;11.616;2022-12-20T02:25:59;3.28;;;2.38;;
4903;SDS011;2467;48.142;11.616;2022-12-20T02:26:55;2.40;;;2.20;;
4903;SDS011;2467;48.142;11.616;2022-12-20T02:27:45;2.70;;;2.50;;
4903;SDS011;2467;48.142;11.616;2022-12-20T02:28:32;3.05;;;2.75;;
4903;SDS011;2467;48.142;11.616;2022-12-20T02:29:20;2.45;;;2.25;;
4903;SDS011;2467;48.142;11.616;2022-12-20T02:30:02;3.65;;;2.65;;
4903;SDS011;2467;48.142;11.616;2022-12-20T02:30:36;2.55;;;2.35;;
4903;SDS011;2467;48.142;11.616;2022-12-20T02:31:12;2.47;;;2.28;;
4903;SDS011;2467;48.142;11.616;2022-12-20T02:31:50;2.58;;;2.33;;
4903;SDS011;2467;48.142;11.616;2022-12-20T02:32:30;2.55;;;2.35;;
4903;SDS011;2467;48.142;11.616;2022-12-20T02:33:09;3.08;;;2.78;;
4903;SDS011;2467;48.142;11.616;2022-12-20T02:33:43;3.17;;;2.85;;
4903;SDS011;2467;48.142;11.616;2022-12-20T02:34:18;2.45;;;2.25;;
4903;SDS011;2467;48.142;11.616;2022-12-20T02:34:55;2.67;;;2.42;;
4903;SDS011;2467;48.142;11.616;2022-12-20T02:35:28;3.50;;;3.20;;
4903;SDS011;2467;48.142;11.616;2022-12-20T02:36:02;24.52;;;20.52;;
4903;SDS011;2467;48.142;11.616;2022-12-20T02:36:35;16.42;;;13.95;;
4903;SDS011;2467;48.142;11.616;2022-12-20T02:37:07;14.38;;;10.82;;
4903;SDS011;2467;48.142;11.616;2022-12-20T02:37:45;12.77;;;9.02;;
4903;SDS011;2467;48.142;11.616;2022-12-20T02:38:23;8.90;;;6.80;;
4903;SDS011;2467;48.142;11.616;2022-12-20T02:38:59;7.43;;;6.07;;
4903;SDS011;2467;48.142;11.616;2022-12-20T02:39:31;6.20;;;5.60;;
4903;SDS011;2467;48.142;11.616;2022-12-20T02:40:06;6.88;;;5.38;;
4903;SDS011;2467;48.142;11.616;2022-12-20T02:40:39;6.40;;;4.70;;
4903;SDS011;2467;48.142;11.616;2022-12-20T02:41:18;4.45;;;3.88;;
4903;SDS011;2467;48.142;11.616;2022-12-20T02:41:54;4.07;;;3.63;;
4903;SDS011;2467;48.142;11.616;2022-12-20T02:42:30;3.05;;;2.83;;
4903;SDS011;2467;48.142;11.616;2022-12-20T02:43:03;3.63;;;2.90;;
4903;SDS011;2467;48.142;11.616;2022-12-20T02:44:04;2.80;;;2.60;;
4903;SDS011;2467;48.142;11.616;2022-12-20T02:45:02;3.80;;;2.92;;
4903;SDS011;2467;48.142;11.616;2022-12-20T02:45:45;3.75;;;2.70;;
4903;SDS011;2467;48.142;11.616;2022-12-20T02:46:17;2.97;;;2.08;;
4903;SDS011;2467;48.142;11.616;2022-12-20T02:46:51;2.15;;;1.95;;
4903;SDS011;2467;48.142;11.616;2022-12-20T02:47:28;3.22;;;2.92;;
4903;SDS011;2467;48.142;11.616;2022-12-20T02:48:05;2.60;;;2.40;;
4903;SDS011;2467;48.142;11.616;2022-12-20T02:48:40;2.78;;;2.58;;
4903;SDS011;2467;48.142;11.616;2022-12-20T02:49:13;4.20;;;3.80;;
4903;SDS011;2467;48.142;11.616;2022-12-20T02:49:48;2.95;;;2.65;;
4903;SDS011;2467;48.142;11.616;2022-12-20T02:50:22;3.15;;;2.90;;
4903;SDS011;2467;48.142;11.616;2022-12-20T02:50:59;2.38;;;2.15;;
4903;SDS011;2467;48.142;11.616;2022-12-20T02:51:34;2.40;;;2.10;;
4903;SDS011;2467;48.142;11.616;2022-12-20T02:52:06;2.72;;;2.35;;
4903;SDS011;2467;48.142;11.616;2022-12-20T02:52:40;2.08;;;1.88;;
4903;SDS011;2467;48.142;11.616;2022-12-20T02:53:13;2.42;;;2.00;;
4903;SDS011;2467;48.142;11.616;2022-12-20T02:53:47;3.58;;;2.80;;
4903;SDS011;2467;48.142;11.616;2022-12-20T02:54:19;3.28;;;2.50;;
4903;SDS011;2467;48.142;11.616;2022-12-20T02:54:51;2.15;;;1.95;;
4903;SDS011;2467;48.142;11.616;2022-12-20T02:55:28;3.17;;;2.75;;
4903;SDS011;2467;48.142;11.616;2022-12-20T02:56:09;3.90;;;2.92;;
4903;SDS011;2467;48.142;11.616;2022-12-20T02:56:46;2.47;;;2.28;;
4903;SDS011;2467;48.142;11.616;2022-12-20T02:57:24;2.85;;;2.22;;
4903;SDS011;2467;48.142;11.616;2022-12-20T02:58:04;3.65;;;2.70;;
4903;SDS011;2467;48.142;11.616;2022-12-20T02:58:42;3.20;;;2.60;;
4903;SDS011;2467;48.142;11.616;2022-12-20T02:59:19;2.30;;;2.10;;
4903;SDS011;2467;48.142;11.616;2022-12-20T02:59:54;3.05;;;2.75;;
4903;SDS011;2467;48.142;11.616;2022-12-20T03:00:34;3.10;;;2.80;;
4903;SDS011;2467;48.142;11.616;2022-12-20T03:01:11;2.35;;;2.15;;
4903;SDS011;2467;48.142;11.616;2022-12-20T03:01:48;2.67;;;2.17;;
4903;SDS011;2467;48.142;11.616;2022-12-20T03:02:23;2.35;;;2.15;;
4903;SDS011;2467;48.142;11.616;2022-12-20T03:02:56;2.55;;;2.35;;
4903;SDS011;2467;48.142;11.616;2022-12-20T03:03:47;3.50;;;3.20;;
4903;SDS011;2467;48.142;11.616;2022-12-20T03:04:23;2.63;;;2.42;;
4903;SDS011;2467;48.142;11.616;2022-12-20T03:04:57;2.83;;;2.63;;
4903;SDS011;2467;48.142;11.616;2022-12-20T03:05:29;7.05;;;5.60;;
4903;SDS011;2467;48.142;11.616;2022-12-20T03:06:05;4.28;;;3.95;;
4903;SDS011;2467;48.142;11.616;2022-12-20T03:06:38;5.13;;;4.50;;
4903;SDS011;2467;48.142;11.616;2022-12-20T03:07:11;6.35;;;3.50;;
4903;SDS011;2467;48.142;11.616;2022-12-20T03:07:45;4.90;;;4.28;;
4903;SDS011;2467;48.142;11.616;2022-12-20T03:08:17;4.03;;;3.55;;
4903;SDS011;2467;48.142;11.616;2022-12-20T03:08:49;3.97;;;3.55;;
4903;SDS011;2467;48.142;11.616;2022-12-20T03:09:22;3.45;;;3.10;;
4903;SDS011;2467;48.142;11.616;2022-12-20T03:09:54;3.30;;;3.00;;
4903;SDS011;2467;48.142;11.616;2022-12-20T03:10:26;2.83;;;2.58;;
4903;SDS011;2467;48.142;11.616;2022-12-20T03:10:58;3.05;;;2.75;;
4903;SDS011;2467;48.142;11.616;2022-12-20T03:11:31;2.33;;;2.05;;
4903;SDS011;2467;48.142;11.616;2022-12-20T03:12:04;2.85;;;2.38;;
4903;SDS011;2467;48.142;11.616;2022-12-20T03:12:36;2.83;;;2.25;;
4903;SDS011;2467;48.142;11.616;2022-12-20T03:13:09;3.22;;;2.13;;
4903;SDS011;2467;48.142;11.616;2022-12-20T03:13:41;2.22;;;2.03;;
4903;SDS011;2467;48.142;11.616;2022-12-20T03:14:13;2.85;;;2.17;;
4903;SDS011;2467;48.142;11.616;2022-12-20T03:14:46;2.67;;;2.47;;
4903;SDS011;2467;48.142;11.616;2022-12-20T03:15:18;4.22;;;2.58;;
4903;SDS011;2467;48.142;11.616;2022-12-20T03:15:51;2.17;;;1.98;;
4903;SDS011;2467;48.142;11.616;2022-12-20T03:16:24;3.10;;;2.47;;
4903;SDS011;2467;48.142;11.616;2022-12-20T03:16:56;2.42;;;2.22;;
4903;SDS011;2467;48.142;11.616;2022-12-20T03:17:28;3.15;;;2.53;;
4903;SDS011;2467;48.142;11.616;2022-12-20T03:18:02;2.55;;;2.05;;
4903;SDS011;2467;48.142;11.616;2022-12-20T03:18:34;2.55;;;2.35;;
4903;SDS011;2467;48.142;11.616;2022-12-20T03:19:06;2.05;;;1.92;;
4903;SDS011;2467;48.142;11.616;2022-12-20T03:19:39;6.57;;;5.78;;
4903;SDS011;2467;48.142;11.616;2022-12-20T03:20:11;8.75;;;5.15;;
4903;SDS011;2467;48.142;11.616;2022-12-20T03:20:43;6.97;;;5.10;;
4903;SDS011;2467;48.142;11.616;2022-12-20T03:21:14;8.45;;;7.63;;
4903;SDS011;2467;48.142;11.616;2022-12-20T03:21:47;14.23;;;10.68;;
4903;SDS011;2467;48.142;11.616;2022-12-20T03:22:19;10.45;;;8.35;;
4903;SDS011;2467;48.142;11.616;2022-12-20T03:22:51;9.32;;;8.43;;
4903;SDS011;2467;48.142;11.616;2022-12-20T03:23:24;5.95;;;5.35;;
4903;SDS011;2467;48.142;11.616;2022-12-20T03:23:56;4.40;;;3.67;;
4903;SDS011;2467;48.142;11.616;2022-12-20T03:24:28;3.95;;;3.10;;
4903;SDS011;2467;48.142;11.616;2022-12-20T03:25:02;4.57;;;4.18;;
4903;SDS011;2467;48.142;11.616;2022-12-20T03:25:35;3.90;;;3.50;;
4903;SDS011;2467;48.142;11.616;2022-12-20T03:26:07;3.63;;;3.25;;
4903;SDS011;2467;48.142;11.616;2022-12-20T03:26:40;4.25;;;3.20;;
4903;SDS011;2467;48.142;11.616;2022-12-20T03:27:12;3.58;;;2.70;;
4903;SDS011;2467;48.142;11.616;2022-12-20T03:27:44;3.75;;;2.97;;
4903;SDS011;2467;48.142;11.616;2022-12-20T03:28:17;2.67;;;2.40;;
4903;SDS011;2467;48.142;11.616;2022-12-20T03:28:49;3.88;;;3.08;;
4903;SDS011;2467;48.142;11.616;2022-12-20T03:29:21;3.10;;;2.63;;
4903;SDS011;2467;48.142;11.616;2022-12-20T03:29:54;3.45;;;2.60;;
4903;SDS011;2467;48.142;11.616;2022-12-20T03:30:26;1.98;;;1.88;;
4903;SDS011;2467;48.142;11.616;2022-12-20T03:30:59;2.92;;;2.50;;
4903;SDS011;2467;48.142;11.616;2022-12-20T03:31:32;3.38;;;3.08;;
4903;SDS011;2467;48.142;11.616;2022-12-20T03:32:04;2.55;;;2.35;;